Time;durP1;ratioP1;P1;durP2;ratioP2;P2;SDS_P1;SDS_P2;PMS_P1;PMS_P2;Temp;Humidity;BMP_temperature;BMP_pressure;BME280_temperature;BME280_humidity;BME280_pressure;Samples;Min_cycle;Max_cycle;Signal;HPM_P1;HPM_P2
2022/07/02 00:01:20;;;;;;;69.68;34.15;;;17.40;99.90;;;;;;10423905;28;20385;-85
2022/07/02 00:06:28;;;;;;;117.28;42.65;;;17.30;99.90;;;;;;10415837;28;20071;-85
2022/07/02 00:11:31;;;;;;;113.20;42.10;;;17.30;99.90;;;;;;10429749;28;20040;-85
2022/07/02 00:16:32;;;;;;;59.90;32.80;;;17.30;99.90;;;;;;10418286;28;20045;-84
2022/07/02 00:21:37;;;;;;;64.53;32.80;;;17.10;99.90;;;;;;10422169;28;20025;-84
2022/07/02 00:26:40;;;;;;;127.30;45.03;;;17.00;99.90;;;;;;10436044;28;20021;-83
2022/07/02 00:31:40;;;;;;;70.15;36.35;;;17.10;99.90;;;;;;10436614;28;20028;-85
2022/07/02 00:36:43;;;;;;;91.38;39.30;;;17.20;99.90;;;;;;10424715;28;20049;-86
2022/07/02 00:41:47;;;;;;;53.92;31.67;;;17.20;99.90;;;;;;10419439;28;20120;-84
2022/07/02 00:46:49;;;;;;;58.08;31.38;;;17.30;99.90;;;;;;10421922;28;20021;-83
2022/07/02 00:51:51;;;;;;;61.25;30.80;;;17.30;99.90;;;;;;10434778;28;20039;-84
2022/07/02 00:56:52;;;;;;;50.15;28.45;;;17.30;99.90;;;;;;10432519;28;20040;-84
2022/07/02 01:01:53;;;;;;;43.70;27.17;;;17.30;99.90;;;;;;10420901;28;20040;-83
2022/07/02 01:06:54;;;;;;;56.90;27.77;;;17.20;99.90;;;;;;10424691;28;20021;-87
2022/07/02 01:11:57;;;;;;;45.95;26.17;;;17.20;99.90;;;;;;10433589;28;20029;-86
2022/07/02 01:16:58;;;;;;;36.88;23.58;;;17.10;99.90;;;;;;10421121;28;20565;-85
2022/07/02 01:22:14;;;;;;;38.85;22.35;;;17.00;99.90;;;;;;10430218;28;20159;-85
2022/07/02 01:27:15;;;;;;;35.08;21.70;;;17.00;99.90;;;;;;10420676;28;20065;-84
2022/07/02 01:32:16;;;;;;;37.67;22.88;;;16.90;99.90;;;;;;10419796;28;20029;-83
2022/07/02 01:37:19;;;;;;;39.83;21.85;;;16.80;99.90;;;;;;10421322;28;20568;-86
2022/07/02 01:42:20;;;;;;;30.10;20.33;;;16.80;99.90;;;;;;10435994;28;20018;-84
2022/07/02 01:47:20;;;;;;;36.13;21.33;;;16.90;99.90;;;;;;10438131;28;20037;-84
2022/07/02 01:52:21;;;;;;;30.23;20.17;;;16.80;99.90;;;;;;10414922;28;20029;-84
2022/07/02 01:57:22;;;;;;;32.22;21.38;;;16.80;99.90;;;;;;10428204;28;20072;-86
2022/07/02 02:02:22;;;;;;;32.15;21.02;;;16.80;99.90;;;;;;10420583;28;20033;-85
2022/07/02 02:07:23;;;;;;;32.80;21.63;;;16.70;99.90;;;;;;10413961;28;20037;-85
2022/07/02 02:12:24;;;;;;;34.45;22.30;;;16.60;99.90;;;;;;10424791;28;20028;-84
2022/07/02 02:17:25;;;;;;;43.47;26.65;;;16.60;99.90;;;;;;10435581;28;20045;-85
2022/07/02 02:22:25;;;;;;;36.83;24.70;;;16.60;99.90;;;;;;10425635;28;20037;-84
2022/07/02 02:27:26;;;;;;;39.55;26.30;;;16.60;99.90;;;;;;10427086;28;20040;-85
2022/07/02 02:32:26;;;;;;;38.50;24.35;;;16.50;99.90;;;;;;10426525;28;20028;-85
2022/07/02 02:37:27;;;;;;;39.88;24.08;;;16.50;99.90;;;;;;10429645;28;20203;-85
2022/07/02 02:42:27;;;;;;;39.95;23.83;;;16.40;99.90;;;;;;10424454;28;20038;-86
2022/07/02 02:47:28;;;;;;;41.80;24.98;;;16.40;99.90;;;;;;10424461;28;20049;-84
2022/07/02 02:52:29;;;;;;;37.70;22.58;;;16.50;99.90;;;;;;10431890;28;20033;-85
2022/07/02 02:57:29;;;;;;;33.17;19.95;;;16.60;99.90;;;;;;10432256;28;20059;-84
2022/07/02 03:02:30;;;;;;;34.92;20.83;;;16.50;99.90;;;;;;10414415;28;20036;-84
2022/07/02 03:07:31;;;;;;;35.67;22.02;;;16.50;99.90;;;;;;10423401;28;20075;-84
2022/07/02 03:12:31;;;;;;;28.27;18.95;;;16.50;99.90;;;;;;10422522;28;20033;-84
2022/07/02 03:17:32;;;;;;;29.80;18.30;;;16.50;99.90;;;;;;10416374;28;20114;-84
2022/07/02 03:22:33;;;;;;;31.75;18.98;;;16.50;99.90;;;;;;10423417;28;20404;-84
2022/07/02 03:27:34;;;;;;;30.67;18.65;;;16.40;99.90;;;;;;10423670;28;20033;-84
2022/07/02 03:32:35;;;;;;;28.48;18.48;;;16.40;99.90;;;;;;10412481;23;20120;-86
2022/07/02 03:37:36;;;;;;;33.45;19.13;;;16.40;99.90;;;;;;10397120;28;20052;-84
2022/07/02 03:42:36;;;;;;;34.90;19.10;;;16.40;99.90;;;;;;10384903;28;20220;-85
2022/07/02 03:47:37;;;;;;;29.58;19.42;;;16.40;99.90;;;;;;10388403;28;20038;-83
2022/07/02 03:52:39;;;;;;;30.80;18.02;;;16.40;99.90;;;;;;10399499;28;20063;-86
2022/07/02 03:57:40;;;;;;;28.30;18.15;;;16.40;99.90;;;;;;10402388;28;20045;-84
2022/07/02 04:02:40;;;;;;;26.17;16.13;;;16.40;99.90;;;;;;10390871;28;20669;-86
2022/07/02 04:07:41;;;;;;;23.58;15.55;;;16.30;99.90;;;;;;10383027;28;20671;-85
2022/07/02 04:12:41;;;;;;;25.85;16.65;;;16.20;99.90;;;;;;10383632;28;20025;-84
2022/07/02 04:17:42;;;;;;;26.27;17.23;;;16.20;99.90;;;;;;10389997;28;20053;-86
2022/07/02 04:22:43;;;;;;;29.17;16.38;;;16.30;99.90;;;;;;10401033;28;20032;-84
2022/07/02 04:27:43;;;;;;;28.48;17.20;;;16.20;99.90;;;;;;10394922;28;20826;-85
2022/07/02 04:32:44;;;;;;;29.73;18.98;;;16.20;99.90;;;;;;10397968;28;20528;-85
2022/07/02 04:37:44;;;;;;;27.92;18.42;;;16.20;99.90;;;;;;10379117;28;20037;-85
2022/07/02 04:42:45;;;;;;;31.77;19.45;;;16.30;99.90;;;;;;10385647;28;20025;-84
2022/07/02 04:47:45;;;;;;;29.25;18.80;;;16.20;99.90;;;;;;10391742;28;20022;-83
2022/07/02 04:52:48;;;;;;;37.38;21.80;;;16.30;99.90;;;;;;10390339;28;20036;-82
2022/07/02 04:57:49;;;;;;;33.65;20.77;;;16.30;99.90;;;;;;10395358;28;20420;-82
2022/07/02 05:02:49;;;;;;;23.63;15.90;;;16.30;99.90;;;;;;10396107;28;20021;-85
2022/07/02 05:07:50;;;;;;;24.45;14.57;;;16.30;99.90;;;;;;10388475;28;20026;-82
2022/07/02 05:12:51;;;;;;;21.42;15.23;;;16.30;99.90;;;;;;10385509;28;20028;-81
2022/07/02 05:17:52;;;;;;;28.73;15.65;;;16.40;99.90;;;;;;10381479;28;20045;-83
2022/07/02 05:22:53;;;;;;;24.02;16.30;;;16.40;99.90;;;;;;10383356;28;20051;-83
2022/07/02 05:27:54;;;;;;;19.70;13.40;;;16.50;99.90;;;;;;10388013;28;20052;-83
2022/07/02 05:32:55;;;;;;;18.40;12.77;;;16.60;99.90;;;;;;10381517;28;20050;-84
2022/07/02 05:37:55;;;;;;;18.75;13.63;;;16.60;99.90;;;;;;10386140;28;20473;-84
2022/07/02 05:42:56;;;;;;;20.90;12.30;;;16.70;99.90;;;;;;10379027;28;20021;-83
2022/07/02 05:47:57;;;;;;;15.73;11.77;;;16.80;99.90;;;;;;10394053;28;20048;-84
2022/07/02 05:52:57;;;;;;;14.82;10.80;;;16.80;99.90;;;;;;10379267;28;20034;-84
2022/07/02 05:57:58;;;;;;;17.33;13.20;;;16.80;99.90;;;;;;10390497;28;20041;-86
2022/07/02 06:02:58;;;;;;;22.02;14.82;;;16.80;99.90;;;;;;10370820;28;20044;-84
2022/07/02 06:07:59;;;;;;;22.48;16.60;;;16.80;99.90;;;;;;10383192;28;20500;-84
2022/07/02 06:12:59;;;;;;;22.75;16.02;;;16.80;99.90;;;;;;10375389;28;20041;-85
2022/07/02 06:18:00;;;;;;;25.65;15.48;;;16.60;99.90;;;;;;10397455;28;20034;-86
2022/07/02 06:23:01;;;;;;;19.17;13.73;;;16.70;99.90;;;;;;10396326;28;20048;-84
2022/07/02 06:28:02;;;;;;;20.70;13.68;;;16.80;99.90;;;;;;10371698;28;20084;-84
2022/07/02 06:33:02;;;;;;;17.58;13.23;;;16.80;99.90;;;;;;10380909;28;20482;-85
2022/07/02 06:38:03;;;;;;;16.13;13.73;;;16.90;99.90;;;;;;10383708;28;20060;-86
2022/07/02 06:43:03;;;;;;;16.98;13.77;;;16.90;99.90;;;;;;10370355;28;20475;-84
2022/07/02 06:48:04;;;;;;;16.05;12.63;;;16.80;99.90;;;;;;10395873;28;20087;-84
2022/07/02 06:53:05;;;;;;;18.05;13.18;;;16.90;99.90;;;;;;10379687;28;20029;-84
2022/07/02 06:58:05;;;;;;;14.88;10.93;;;17.00;99.90;;;;;;10379484;28;20116;-83
2022/07/02 07:03:06;;;;;;;16.42;11.55;;;17.00;99.90;;;;;;10376451;28;20025;-85
2022/07/02 07:08:07;;;;;;;14.27;11.27;;;16.90;99.90;;;;;;10379733;28;20536;-84
2022/07/02 07:13:07;;;;;;;13.50;10.55;;;17.00;99.90;;;;;;10384089;28;20084;-83
2022/07/02 07:18:08;;;;;;;13.65;10.10;;;17.00;99.90;;;;;;10380415;28;20037;-84
2022/07/02 07:23:08;;;;;;;12.13;10.35;;;16.90;99.90;;;;;;10390608;28;20040;-83
2022/07/02 07:28:09;;;;;;;19.10;12.48;;;16.80;99.90;;;;;;10383265;28;20037;-83
2022/07/02 07:33:34;;;;;;;15.23;12.45;;;16.60;99.90;;;;;;10383321;28;20631;-83
2022/07/02 07:38:35;;;;;;;18.13;12.48;;;16.60;99.90;;;;;;10394383;28;20545;-84
2022/07/02 07:43:42;;;;;;;18.88;12.13;;;16.60;99.90;;;;;;10381713;28;20069;-83
2022/07/02 07:48:42;;;;;;;15.35;11.07;;;16.50;99.90;;;;;;10378496;28;20057;-84
2022/07/02 07:53:44;;;;;;;16.23;11.50;;;16.70;99.90;;;;;;10379213;28;20149;-84
2022/07/02 07:59:16;;;;;;;21.23;14.90;;;16.70;99.90;;;;;;10380187;28;20126;-85
2022/07/02 08:04:17;;;;;;;19.02;14.30;;;16.80;99.90;;;;;;10376642;28;20069;-84
2022/07/02 08:09:28;;;;;;;14.30;9.95;;;16.70;99.90;;;;;;10379857;28;20121;-85
2022/07/02 08:14:29;;;;;;;12.30;8.80;;;16.70;99.90;;;;;;10388580;28;20040;-84
2022/07/02 08:19:32;;;;;;;10.15;7.43;;;16.80;99.90;;;;;;10382331;28;20405;-85
2022/07/02 08:24:33;;;;;;;10.35;7.82;;;17.40;99.90;;;;;;10384138;28;20117;-86
2022/07/02 08:29:34;;;;;;;11.65;9.07;;;17.80;99.90;;;;;;10392415;28;20648;-83
2022/07/02 08:34:35;;;;;;;15.15;10.73;;;17.90;99.90;;;;;;10395191;28;20361;-84
2022/07/02 08:39:36;;;;;;;11.88;9.65;;;18.20;99.90;;;;;;10399360;28;20675;-84
2022/07/02 08:44:38;;;;;;;8.15;7.32;;;18.20;99.90;;;;;;10392372;28;20031;-85
2022/07/02 08:49:40;;;;;;;7.43;5.90;;;18.40;99.90;;;;;;10395189;28;20040;-84
2022/07/02 08:54:40;;;;;;;6.20;5.30;;;18.30;99.90;;;;;;10391406;28;20025;-85
2022/07/02 08:59:42;;;;;;;6.57;5.30;;;18.30;99.90;;;;;;10387091;28;20474;-85
2022/07/02 09:04:48;;;;;;;6.00;4.97;;;18.10;99.90;;;;;;10385707;28;20030;-85
2022/07/02 09:09:49;;;;;;;5.22;4.65;;;17.90;99.90;;;;;;10389691;28;20080;-86
2022/07/02 09:14:50;;;;;;;5.32;4.82;;;17.70;99.90;;;;;;10386425;28;20037;-84
2022/07/02 09:19:51;;;;;;;6.68;4.97;;;17.80;99.90;;;;;;10384971;28;20069;-84
2022/07/02 09:24:51;;;;;;;5.40;4.90;;;17.70;99.90;;;;;;10378695;28;20080;-85
2022/07/02 09:29:53;;;;;;;7.55;5.50;;;17.70;99.90;;;;;;10392426;28;20057;-85
2022/07/02 09:34:54;;;;;;;5.90;4.78;;;17.70;99.90;;;;;;10373205;28;20509;-85
2022/07/02 09:40:00;;;;;;;6.03;4.78;;;17.80;99.90;;;;;;10386280;28;20120;-85
2022/07/02 09:45:04;;;;;;;7.32;5.53;;;17.90;99.90;;;;;;10385066;28;20034;-84
2022/07/02 09:50:07;;;;;;;7.13;5.57;;;17.80;99.90;;;;;;10374910;28;20045;-84
2022/07/02 09:55:23;;;;;;;6.38;4.90;;;17.90;99.90;;;;;;10391593;28;20389;-83
2022/07/02 10:00:26;;;;;;;5.70;5.20;;;18.00;99.90;;;;;;10375039;28;20864;-83
2022/07/02 10:05:34;;;;;;;3.95;3.55;;;18.10;99.90;;;;;;10377799;28;20025;-84
2022/07/02 10:10:40;;;;;;;6.13;3.92;;;18.40;99.90;;;;;;10382791;28;20040;-83
2022/07/02 10:16:00;;;;;;;4.03;3.67;;;18.50;99.90;;;;;;10383530;28;20092;-85
2022/07/02 10:21:03;;;;;;;4.82;3.67;;;18.30;99.90;;;;;;10383229;28;20401;-86
2022/07/02 10:26:03;;;;;;;5.82;5.32;;;18.30;99.90;;;;;;10379528;28;20026;-86
2022/07/02 10:31:08;;;;;;;8.73;7.00;;;18.40;99.90;;;;;;10384671;28;20060;-86
2022/07/02 10:36:12;;;;;;;8.63;7.77;;;18.40;99.90;;;;;;10384971;28;20083;-87
2022/07/02 10:41:12;;;;;;;5.53;4.93;;;18.40;99.90;;;;;;10387933;28;20034;-87
2022/07/02 10:46:17;;;;;;;6.13;4.47;;;18.50;99.90;;;;;;10381041;28;20393;-85
2022/07/02 10:51:29;;;;;;;5.55;3.60;;;18.50;99.90;;;;;;10390702;28;20030;-89
2022/07/02 10:56:41;;;;;;;3.55;3.25;;;18.50;99.90;;;;;;10376671;28;20061;-90
2022/07/02 11:01:42;;;;;;;4.45;3.65;;;19.00;99.90;;;;;;10391650;28;20026;-88
2022/07/02 11:07:23;;;;;;;3.42;3.05;;;19.50;99.90;;;;;;10376609;28;20026;-89
2022/07/02 11:12:44;;;;;;;4.35;3.95;;;19.40;99.90;;;;;;10400733;28;20025;-88
2022/07/02 11:17:51;;;;;;;3.72;3.40;;;19.20;99.90;;;;;;10398037;23;20053;-88
2022/07/02 11:22:53;;;;;;;3.78;2.92;;;19.00;99.90;;;;;;10373082;28;20032;-84
2022/07/02 11:28:31;;;;;;;4.20;2.85;;;18.90;99.90;;;;;;10458150;23;20502;-88
2022/07/02 11:33:32;;;;;;;4.82;3.65;;;19.20;99.90;;;;;;10410660;28;20369;-85
2022/07/02 11:38:37;;;;;;;3.75;3.20;;;19.40;99.90;;;;;;10381165;28;20140;-85
2022/07/02 11:43:38;;;;;;;;;;;19.40;99.90;;;;;;10371147;28;20117;-86
2022/07/02 11:48:39;;;;;;;3.88;3.58;;;19.20;99.90;;;;;;10376629;28;20007;-84
2022/07/02 11:53:40;;;;;;;3.08;2.88;;;19.10;99.90;;;;;;10375823;28;20040;-86
2022/07/02 11:58:48;;;;;;;3.65;2.53;;;19.40;99.90;;;;;;10373790;28;20127;-87
2022/07/02 12:03:50;;;;;;;2.88;2.60;;;19.70;99.90;;;;;;10380786;28;20021;-84
2022/07/02 12:08:52;;;;;;;2.50;2.30;;;20.10;99.90;;;;;;10380472;28;20093;-89
2022/07/02 12:13:56;;;;;;;2.10;2.00;;;20.50;99.90;;;;;;10378957;28;20042;-86
2022/07/02 12:19:09;;;;;;;2.75;2.00;;;20.70;99.90;;;;;;10380561;28;20120;-85
2022/07/02 12:24:24;;;;;;;3.25;1.90;;;20.90;99.90;;;;;;10378159;28;20709;-86
2022/07/02 12:34:49;;;;;;;2.30;2.10;;;20.40;99.90;;;;;;10380183;28;20121;-85
2022/07/02 12:40:00;;;;;;;2.30;2.10;;;19.70;99.90;;;;;;10392907;28;20041;-85
2022/07/02 12:45:05;;;;;;;2.88;2.42;;;19.40;99.90;;;;;;10373601;28;20026;-85
2022/07/02 12:50:09;;;;;;;2.50;1.95;;;19.30;99.90;;;;;;10381034;28;20033;-86
2022/07/02 12:55:32;;;;;;;3.50;2.40;;;19.20;99.90;;;;;;10369864;28;20029;-87
2022/07/02 13:00:34;;;;;;;2.80;2.50;;;19.20;99.90;;;;;;10380723;28;20029;-84
2022/07/02 13:05:38;;;;;;;3.20;2.20;;;19.40;99.90;;;;;;10383627;28;20032;-86
2022/07/02 13:10:40;;;;;;;2.60;2.40;;;19.70;99.90;;;;;;10383319;28;20028;-84
2022/07/02 13:15:41;;;;;;;1.60;1.50;;;20.00;99.90;;;;;;10383186;28;20033;-83
2022/07/02 13:20:43;;;;;;;2.53;1.90;;;20.40;99.90;;;;;;10393825;28;20496;-84
2022/07/02 13:25:44;;;;;;;1.90;1.80;;;20.60;99.90;;;;;;10391784;28;20041;-84
2022/07/02 13:30:44;;;;;;;2.95;2.15;;;20.80;99.90;;;;;;10379023;28;20062;-86
2022/07/02 13:35:45;;;;;;;4.05;2.20;;;21.00;99.90;;;;;;10378267;28;20458;-86
2022/07/02 13:40:46;;;;;;;3.17;2.20;;;21.10;99.90;;;;;;10397147;28;20045;-83
2022/07/02 13:45:46;;;;;;;2.30;1.60;;;21.30;99.90;;;;;;10386517;28;20029;-86
2022/07/02 13:50:47;;;;;;;2.13;1.67;;;21.50;99.90;;;;;;10376255;28;20143;-83
2022/07/02 13:55:48;;;;;;;2.22;1.75;;;21.70;99.90;;;;;;10371656;28;20108;-83
2022/07/02 14:00:48;;;;;;;1.98;1.58;;;21.90;99.90;;;;;;10365988;28;20048;-83
2022/07/02 14:05:49;;;;;;;1.85;1.60;;;22.00;99.90;;;;;;10364605;28;20577;-83
2022/07/02 14:10:50;;;;;;;2.05;1.60;;;22.00;99.90;;;;;;10370490;28;20030;-84
2022/07/02 14:15:50;;;;;;;2.90;1.55;;;21.90;99.90;;;;;;10386366;28;20036;-85
2022/07/02 14:20:51;;;;;;;3.25;1.83;;;21.40;99.90;;;;;;10372597;28;20037;-82
2022/07/02 14:25:51;;;;;;;2.42;2.08;;;21.20;99.90;;;;;;10369173;28;20130;-83
2022/07/02 14:30:52;;;;;;;2.10;1.88;;;21.00;99.90;;;;;;10368926;28;20058;-83
2022/07/02 14:35:55;;;;;;;1.80;1.65;;;21.20;99.90;;;;;;10367221;28;20374;-84
2022/07/02 14:46:31;;;;;;;1.98;1.77;;;21.50;99.90;;;;;;10378953;28;20037;-84
2022/07/02 14:51:31;;;;;;;2.08;1.90;;;21.80;99.90;;;;;;10366188;28;20385;-83
2022/07/02 14:56:34;;;;;;;2.30;2.10;;;21.90;99.90;;;;;;10379496;28;20032;-85
2022/07/02 15:01:34;;;;;;;1.35;1.25;;;22.10;99.90;;;;;;10373080;28;20079;-87
2022/07/02 15:06:35;;;;;;;1.45;1.35;;;22.10;99.90;;;;;;10367116;28;20029;-85
2022/07/02 15:11:36;;;;;;;3.17;1.40;;;21.80;99.90;;;;;;10373953;28;20098;-86
2022/07/02 15:16:36;;;;;;;1.77;1.67;;;21.80;99.90;;;;;;10369415;28;20029;-84
2022/07/02 15:21:46;;;;;;;3.65;1.73;;;21.80;99.90;;;;;;10371226;28;20818;-83
2022/07/02 15:26:47;;;;;;;2.00;1.73;;;21.70;99.90;;;;;;10384362;28;20109;-84
2022/07/02 15:31:47;;;;;;;4.38;1.70;;;21.80;99.90;;;;;;10385165;28;20059;-86
2022/07/02 15:36:49;;;;;;;6.68;2.17;;;21.50;99.90;;;;;;10379606;28;20121;-87
2022/07/02 15:41:52;;;;;;;2.00;1.90;;;21.30;99.90;;;;;;10379419;28;20048;-83
2022/07/02 15:46:54;;;;;;;4.35;2.65;;;21.30;99.90;;;;;;10366700;28;20425;-83
2022/07/02 15:51:58;;;;;;;10.73;8.10;;;21.30;99.90;;;;;;10378576;28;20033;-82
2022/07/02 15:57:04;;;;;;;4.85;4.38;;;21.40;99.90;;;;;;10377300;28;20058;-85
2022/07/02 16:02:06;;;;;;;1.73;1.60;;;21.50;99.90;;;;;;10372935;28;20116;-84
2022/07/02 16:07:09;;;;;;;3.13;1.70;;;21.70;99.90;;;;;;10377327;28;20026;-84
2022/07/02 16:12:10;;;;;;;2.28;1.52;;;21.80;99.90;;;;;;10402456;28;20041;-84
2022/07/02 16:17:11;;;;;;;3.72;2.70;;;21.50;99.90;;;;;;10372254;28;20038;-86
2022/07/02 16:22:13;;;;;;;12.93;9.40;;;21.20;99.90;;;;;;10374284;28;20030;-83
2022/07/02 16:27:14;;;;;;;4.20;3.80;;;20.90;99.90;;;;;;10371498;28;20041;-81
2022/07/02 16:32:21;;;;;;;4.63;4.10;;;20.80;99.90;;;;;;10386631;28;20029;-87
2022/07/02 16:37:29;;;;;;;1.70;1.60;;;20.90;99.90;;;;;;10375419;28;20066;-85
2022/07/02 16:42:32;;;;;;;2.38;1.55;;;20.90;99.90;;;;;;10375232;28;20041;-84
2022/07/02 16:47:46;;;;;;;2.30;1.50;;;20.80;99.90;;;;;;10376336;28;20916;-88
2022/07/02 16:53:05;;;;;;;1.73;1.60;;;20.80;99.90;;;;;;10395745;28;20034;-84
2022/07/02 16:58:08;;;;;;;2.85;2.55;;;20.90;99.90;;;;;;10381528;28;20034;-83
2022/07/02 17:03:10;;;;;;;2.50;1.90;;;20.70;99.90;;;;;;10370770;28;20397;-84
2022/07/02 17:08:11;;;;;;;2.80;2.55;;;20.50;99.90;;;;;;10368331;28;20064;-84
2022/07/02 17:13:12;;;;;;;2.90;2.60;;;20.30;99.90;;;;;;10374024;28;20131;-85
2022/07/02 17:18:13;;;;;;;4.13;2.80;;;20.10;99.90;;;;;;10373953;28;20116;-85
2022/07/02 17:23:13;;;;;;;2.83;2.60;;;20.10;99.90;;;;;;10391510;28;20033;-83
2022/07/02 17:28:14;;;;;;;1.80;1.70;;;20.20;99.90;;;;;;10374179;28;20135;-83
2022/07/02 17:33:15;;;;;;;3.05;2.05;;;20.20;99.90;;;;;;10370844;28;20594;-84
2022/07/02 17:38:17;;;;;;;9.95;2.17;;;20.10;99.90;;;;;;10390386;28;20562;-85
2022/07/02 17:43:19;;;;;;;2.80;1.63;;;20.10;99.90;;;;;;10369882;28;20129;-88
2022/07/02 17:48:20;;;;;;;2.20;2.00;;;20.00;99.90;;;;;;10381415;28;20072;-84
2022/07/02 17:53:21;;;;;;;2.97;1.98;;;20.00;99.90;;;;;;10369037;28;20061;-83
2022/07/02 17:58:21;;;;;;;2.38;2.00;;;19.90;99.90;;;;;;10384821;28;20167;-85
2022/07/02 18:03:22;;;;;;;3.25;2.08;;;19.50;99.90;;;;;;10379775;28;20025;-83
2022/07/02 18:08:23;;;;;;;2.47;2.15;;;19.10;99.90;;;;;;10370425;28;20033;-85
2022/07/02 18:13:24;;;;;;;2.78;2.20;;;18.80;99.90;;;;;;10365231;28;20029;-83
2022/07/02 18:18:24;;;;;;;3.55;2.47;;;18.50;99.90;;;;;;10378136;28;20039;-84
2022/07/02 18:23:25;;;;;;;3.13;2.55;;;18.20;99.90;;;;;;10367242;28;20029;-87
2022/07/02 18:28:26;;;;;;;5.28;3.00;;;18.00;99.90;;;;;;10374459;28;20056;-84
2022/07/02 18:33:26;;;;;;;5.50;3.03;;;17.70;99.90;;;;;;10375328;28;20588;-82
2022/07/02 18:38:27;;;;;;;3.72;3.40;;;17.50;99.90;;;;;;10385890;28;20038;-87
2022/07/02 18:43:28;;;;;;;4.80;3.40;;;17.30;99.90;;;;;;10369628;28;20066;-87
2022/07/02 18:48:29;;;;;;;4.57;3.97;;;17.20;99.90;;;;;;10375699;28;20064;-84
2022/07/02 18:53:30;;;;;;;4.40;3.75;;;17.00;99.90;;;;;;10373078;28;20121;-84
2022/07/02 18:58:31;;;;;;;6.20;4.47;;;16.90;99.90;;;;;;10371014;28;20033;-83
2022/07/02 19:03:32;;;;;;;7.50;5.13;;;16.90;99.90;;;;;;10377816;28;20025;-83
2022/07/02 19:08:32;;;;;;;6.15;5.45;;;16.70;99.90;;;;;;10382000;28;20030;-86
2022/07/02 19:13:34;;;;;;;7.68;5.68;;;16.60;99.90;;;;;;10386446;28;20071;-83
2022/07/02 19:18:35;;;;;;;8.52;6.70;;;16.40;99.90;;;;;;10376656;28;20030;-83
2022/07/02 19:23:37;;;;;;;7.20;6.32;;;16.20;99.90;;;;;;10373138;28;20029;-83
2022/07/02 19:33:57;;;;;;;9.80;7.05;;;16.10;99.90;;;;;;10384762;28;20136;-83
2022/07/02 19:38:58;;;;;;;9.75;6.88;;;16.10;99.90;;;;;;10371186;28;20050;-83
2022/07/02 19:44:00;;;;;;;7.43;6.43;;;16.00;99.90;;;;;;10370239;28;20060;-84
2022/07/02 19:49:03;;;;;;;8.38;6.47;;;15.80;99.90;;;;;;10370183;28;20033;-84
2022/07/02 19:54:04;;;;;;;9.40;7.03;;;15.70;99.90;;;;;;10371382;28;20072;-86
2022/07/02 19:59:06;;;;;;;10.50;7.07;;;15.50;99.90;;;;;;10379013;28;20041;-84
2022/07/02 20:04:07;;;;;;;11.70;8.23;;;15.40;99.90;;;;;;10378443;28;20033;-84
2022/07/02 20:09:07;;;;;;;11.30;8.02;;;15.40;99.90;;;;;;10368142;28;20030;-85
2022/07/02 20:14:08;;;;;;;12.00;9.05;;;15.40;99.90;;;;;;10378414;28;20038;-84
2022/07/02 20:19:09;;;;;;;10.68;8.02;;;15.40;99.90;;;;;;10371281;28;20053;-83
2022/07/02 20:24:10;;;;;;;13.32;9.30;;;15.60;99.90;;;;;;10371124;28;20045;-85
2022/07/02 20:29:11;;;;;;;14.85;9.52;;;15.70;99.90;;;;;;10370074;28;20072;-83
2022/07/02 20:34:21;;;;;;;11.38;9.30;;;15.80;99.90;;;;;;10374693;28;20148;-85
2022/07/02 20:39:22;;;;;;;15.45;10.38;;;15.80;99.90;;;;;;10375924;28;20040;-84
2022/07/02 20:44:23;;;;;;;20.25;13.98;;;15.60;99.90;;;;;;10372597;28;20550;-84
2022/07/02 20:49:23;;;;;;;19.35;12.18;;;15.50;99.90;;;;;;10371986;28;20051;-84
2022/07/02 20:54:39;;;;;;;20.50;13.95;;;15.40;99.90;;;;;;10377849;28;20037;-84
2022/07/02 20:59:40;;;;;;;26.55;19.17;;;15.40;99.90;;;;;;10384276;28;20045;-84
2022/07/02 21:05:45;;;;;;;21.15;15.20;;;15.30;99.90;;;;;;10376839;28;20486;-84
2022/07/02 21:10:46;;;;;;;21.42;16.65;;;15.20;99.90;;;;;;10293514;28;20046;-84
2022/07/02 21:15:46;;;;;;;21.58;12.73;;;15.10;99.90;;;;;;10276589;28;20042;-83
2022/07/02 21:26:46;;;;;;;18.88;13.10;;;14.90;99.90;;;;;;10350712;28;20502;-85
2022/07/02 21:31:47;;;;;;;17.20;13.05;;;14.90;99.90;;;;;;10400592;28;20048;-84
2022/07/02 21:36:47;;;;;;;17.92;12.90;;;14.90;99.90;;;;;;10387086;28;20073;-84
2022/07/02 21:41:51;;;;;;;19.65;13.18;;;14.90;99.90;;;;;;10395791;28;20120;-85
2022/07/02 21:46:52;;;;;;;20.40;13.80;;;14.90;99.90;;;;;;10398422;28;20114;-86
2022/07/02 21:51:53;;;;;;;17.02;12.77;;;14.80;99.90;;;;;;10399448;28;20080;-84
2022/07/02 21:56:54;;;;;;;19.08;12.50;;;14.90;99.90;;;;;;10383285;28;20057;-85
2022/07/02 22:01:54;;;;;;;18.67;13.20;;;14.80;99.90;;;;;;10390835;28;20033;-85
2022/07/02 22:06:55;;;;;;;18.48;11.98;;;14.80;99.90;;;;;;10396939;28;20025;-85
2022/07/02 22:11:56;;;;;;;21.17;14.13;;;14.70;99.90;;;;;;10394090;28;20088;-85
2022/07/02 22:16:57;;;;;;;19.20;13.82;;;14.60;99.90;;;;;;10393499;28;20108;-84
2022/07/02 22:21:57;;;;;;;19.42;13.88;;;14.70;99.90;;;;;;10380602;28;20048;-85
2022/07/02 22:26:59;;;;;;;17.90;14.32;;;14.70;99.90;;;;;;10396007;28;20092;-84
2022/07/02 22:32:00;;;;;;;18.88;13.93;;;14.60;99.90;;;;;;10397609;28;20051;-84
2022/07/02 22:37:02;;;;;;;21.02;14.30;;;14.60;99.90;;;;;;10378840;28;20034;-84
2022/07/02 22:42:03;;;;;;;23.33;15.52;;;14.50;99.90;;;;;;10369584;28;20076;-84
2022/07/02 22:47:04;;;;;;;26.25;16.08;;;14.50;99.90;;;;;;10368672;28;20432;-84
2022/07/02 22:52:04;;;;;;;25.90;17.77;;;14.40;99.90;;;;;;10381731;28;20107;-83
2022/07/02 22:57:05;;;;;;;29.35;17.75;;;14.40;99.90;;;;;;10374230;28;20038;-83
2022/07/02 23:02:06;;;;;;;26.10;17.88;;;14.30;99.90;;;;;;10380237;28;20033;-84
2022/07/02 23:07:07;;;;;;;25.98;18.58;;;14.30;99.90;;;;;;10381014;28;20040;-84
2022/07/02 23:12:08;;;;;;;29.45;18.67;;;14.30;99.90;;;;;;10369307;28;20062;-84
2022/07/02 23:17:09;;;;;;;26.85;18.27;;;14.40;99.90;;;;;;10373290;28;20447;-84
2022/07/02 23:22:10;;;;;;;26.27;18.15;;;14.30;99.90;;;;;;10372857;28;20133;-84
2022/07/02 23:27:10;;;;;;;25.52;18.20;;;14.40;99.90;;;;;;10368924;28;20052;-83
2022/07/02 23:32:11;;;;;;;27.95;18.52;;;14.40;99.90;;;;;;10371947;28;20456;-85
2022/07/02 23:37:13;;;;;;;27.23;18.70;;;14.40;99.90;;;;;;10378544;28;20397;-83
2022/07/02 23:42:14;;;;;;;27.20;18.85;;;14.40;99.90;;;;;;10369844;28;20100;-83
2022/07/02 23:47:15;;;;;;;28.73;19.02;;;14.50;99.90;;;;;;10364544;28;20036;-83
2022/07/02 23:52:16;;;;;;;28.92;19.90;;;14.50;99.90;;;;;;10373396;28;20033;-85
2022/07/02 23:57:16;;;;;;;30.55;19.85;;;14.40;99.90;;;;;;10373652;28;20068;-83
